Teuge International Airport

EHTE · Gelderland, Niederlande

5. Oktober 2022

Uhrzeit Code Wetter Temp. Sichtweite Wolkendecke Wind METAR/SPECI
20:25
M
17 °C 10 km+ 2.500 ft 210° 210° 19 kt METAR EHGG 051825Z AUTO 21019KT 180V250 9999 OVC025 17/12 Q1011 NOSIG
19:55
M
17 °C 10 km+ 2.500 ft 210° 210° 17 kt METAR EHGG 051755Z AUTO 21017KT 170V240 9999 OVC025 17/11 Q1010 NOSIG
19:25
M
17 °C 10 km+ 2.700 ft 210° 210° 19 - 30 kt METAR EHGG 051725Z AUTO 21019G30KT 180V250 9999 OVC027 17/11 Q1010 NOSIG
18:55
V
17 °C 10 km+ 3.000 ft 210° 210° 18 kt METAR EHGG 051655Z AUTO 21018KT 180V240 9999 OVC030 17/11 Q1010 NOSIG
18:25
V
17 °C 10 km+ 3.400 ft 210° 210° 19 - 29 kt METAR EHGG 051625Z AUTO 21019G29KT 180V240 9999 OVC034 17/11 Q1010 NOSIG
17:55
V
17 °C 10 km+ 3.800 ft 220° 220° 17 - 28 kt METAR EHGG 051555Z AUTO 22017G28KT 180V240 9999 FEW029 OVC038 17/12 Q1010 NOSIG
17:25
V
17 °C 10 km+ 3.200 ft 220° 220° 19 - 29 kt METAR EHGG 051525Z AUTO 22019G29KT 190V250 9999 SCT028 BKN032 OVC037 17/12 Q1010 NOSIG
16:55
V
17 °C 10 km+ 3.000 ft 220° 220° 18 kt METAR EHGG 051455Z AUTO 22018KT 180V250 9999 SCT026 OVC030 17/12 Q1010 NOSIG
16:25
V
17 °C 10 km+ 3.200 ft 210° 210° 18 kt METAR EHGG 051425Z AUTO 21018KT 180V240 9999 FEW023 SCT028 BKN032 17/12 Q1010 NOSIG
15:55
M
17 °C 10 km+ 2.600 ft 210° 210° 16 kt METAR EHGG 051355Z AUTO 21016KT 170V250 9999 SCT023 BKN026 OVC030 17/12 Q1010 NOSIG
15:25
M
17 °C 10 km+ 2.700 ft 220° 220° 16 kt METAR EHGG 051325Z AUTO 22016KT 180V240 9999 FEW023 BKN027 OVC031 17/12 Q1011 NOSIG
14:55
M
16 °C 10 km+ 2.400 ft 220° 220° 16 kt METAR EHGG 051255Z AUTO 22016KT 180V240 9999 BKN024 OVC027 16/12 Q1011 NOSIG
14:25
M
16 °C 10 km+ 2.400 ft 220° 220° 18 - 28 kt METAR EHGG 051225Z AUTO 22018G28KT 180V240 9999 BKN024 OVC028 16/11 Q1011 NOSIG
13:55
M
16 °C 10 km+ 2.400 ft 220° 220° 19 - 30 kt METAR EHGG 051155Z AUTO 22019G30KT 190V250 9999 OVC024 16/11 Q1011 NOSIG
13:25
M
16 °C 10 km+ 2.300 ft 220° 220° 20 - 33 kt METAR EHGG 051125Z AUTO 22020G33KT 9999 OVC023 16/11 Q1011 NOSIG
12:55
M
16 °C 10 km+ 2.200 ft 210° 210° 18 - 29 kt METAR EHGG 051055Z AUTO 21018G29KT 160V240 9999 OVC022 16/12 Q1011 NOSIG
12:25
M
16 °C 10 km+ 2.200 ft 210° 210° 20 kt METAR EHGG 051025Z AUTO 21020KT 180V240 9999 OVC022 16/12 Q1011 NOSIG
11:55
M
17 °C 10 km+ 2.600 ft 200° 200° 17 kt METAR EHGG 050955Z AUTO 20017KT 170V230 9999 FEW023 OVC026 17/12 Q1011 TEMPO 21017G27KT
11:25
M
16 °C 10 km+ 2.400 ft 210° 210° 17 kt METAR EHGG 050925Z AUTO 21017KT 170V240 9999 SCT021 BKN024 OVC028 16/12 Q1012 TEMPO 21017G27KT
10:55
M
16 °C 10 km+ 2.800 ft 200° 200° 15 kt METAR EHGG 050855Z AUTO 20015KT 170V230 9999 OVC028 16/12 Q1012 TEMPO 21017G27KT
10:25
M
15 °C 10 km+ 2.700 ft 200° 200° 16 kt METAR EHGG 050825Z AUTO 20016KT 9999 OVC027 15/11 Q1012 NOSIG
09:55
M
15 °C 10 km+ 2.800 ft 200° 200° 15 kt METAR EHGG 050755Z AUTO 20015KT 170V230 9999 OVC028 15/11 Q1012 NOSIG
09:25
M
15 °C 10 km+ 2.700 ft 210° 210° 13 kt METAR EHGG 050725Z AUTO 21013KT 180V240 9999 OVC027 15/11 Q1012 NOSIG
08:55
M
15 °C 10 km+ 2.500 ft 210° 210° 13 kt METAR EHGG 050655Z AUTO 21013KT 170V240 9999 OVC025 15/11 Q1012 NOSIG
08:25
M
15 °C 10 km+ 2.700 ft 210° 210° 14 kt METAR EHGG 050625Z AUTO 21014KT 170V230 9999 OVC027 15/11 Q1012 NOSIG
07:55
M
15 °C 10 km+ 2.500 ft 210° 210° 13 kt METAR EHGG 050555Z AUTO 21013KT 170V230 9999 OVC025 15/11 Q1012 NOSIG
07:25
M
15 °C 10 km+ 2.600 ft 210° 210° 14 kt METAR EHGG 050525Z AUTO 21014KT 180V240 9999 OVC026 15/11 Q1012 NOSIG
06:55
M
15 °C 10 km+ 2.700 ft 210° 210° 13 kt METAR EHGG 050455Z AUTO 21013KT 170V230 9999 OVC027 15/11 Q1012 NOSIG
06:25
M
15 °C 10 km+ 2.700 ft 200° 200° 11 kt METAR EHGG 050425Z AUTO 20011KT 170V230 9999 BKN027 OVC031 15/12 Q1013 NOSIG
05:55
M
15 °C 10 km+ 2.700 ft 210° 210° 10 kt METAR EHGG 050355Z AUTO 21010KT 180V240 9999 FEW024 OVC027 15/12 Q1013 NOSIG
05:25
M
15 °C 10 km+ 2.900 ft 210° 210° 11 kt METAR EHGG 050325Z AUTO 21011KT 9999 OVC029 15/12 Q1013
04:55
V
15 °C 10 km+ 3.000 ft 210° 210° 10 kt METAR EHGG 050255Z AUTO 21010KT 9999 OVC030 15/12 Q1013
04:25
V
15 °C 10 km+ 3.600 ft 210° 210° 12 kt METAR EHGG 050225Z AUTO 21012KT 180V240 9999 OVC036 15/12 Q1013
03:55
V
15 °C 10 km+ 3.700 ft 210° 210° 13 kt METAR EHGG 050155Z AUTO 21013KT 9999 OVC037 15/12 Q1014
03:25
V
15 °C 10 km+ 3.700 ft 210° 210° 13 kt METAR EHGG 050125Z AUTO 21013KT 180V240 9999 BKN037 15/12 Q1014
02:55
V
15 °C 10 km+ 3.500 ft 200° 200° 10 kt METAR EHGG 050055Z AUTO 20010KT 170V230 9999 OVC035 15/12 Q1014
02:25
V
15 °C 10 km+ 3.500 ft 210° 210° 11 kt METAR EHGG 050025Z AUTO 21011KT 9999 SCT030/// OVC035/// 15/12 Q1015
01:55
V
15 °C 10 km+ 3.500 ft 210° 210° 11 kt METAR EHGG 042355Z AUTO 21011KT 9999 OVC035 15/12 Q1015
01:25
V
15 °C 10 km+ 3.400 ft 200° 200° 11 kt METAR EHGG 042325Z AUTO 20011KT 170V240 9999 BKN034 OVC038 15/12 Q1015
00:55
V
15 °C 10 km+ 3.800 ft 210° 210° 9 kt METAR EHGG 042255Z AUTO 21009KT 9999 OVC038 15/12 Q1015
00:25
V
15 °C 10 km+ 3.900 ft 210° 210° 9 kt METAR EHGG 042225Z AUTO 21009KT 180V240 9999 OVC039 15/12 Q1016

4. Oktober 2022

Uhrzeit Code Wetter Temp. Sichtweite Wolkendecke Wind METAR/SPECI
23:55
V
15 °C 10 km+ 3.900 ft 200° 200° 9 kt METAR EHGG 042155Z AUTO 20009KT 170V240 9999 OVC039 15/11 Q1016
23:25
V
15 °C 10 km+ 3.800 ft 200° 200° 9 kt METAR EHGG 042125Z AUTO 20009KT 9999 OVC038 15/11 Q1016 NOSIG
22:55
V
15 °C 10 km+ 3.700 ft 200° 200° 8 kt METAR EHGG 042055Z AUTO 20008KT 9999 OVC037 15/11 Q1016 NOSIG
22:25
M
15 °C 10 km+ 2.500 ft 190° 190° 8 kt METAR EHGG 042025Z AUTO 19008KT 160V220 9999 BKN025 OVC039 15/11 Q1016 NOSIG
21:55
V
16 °C 10 km+ 3.300 ft 190° 190° 10 kt METAR EHGG 041955Z AUTO 19010KT 170V230 9999 OVC033 16/11 Q1016 NOSIG
21:25
V
16 °C 10 km+ 3.700 ft 190° 190° 10 kt METAR EHGG 041925Z AUTO 19010KT 170V230 9999 OVC037 16/10 Q1016 NOSIG
20:55
V
15 °C 10 km+ 3.900 ft 200° 200° 10 kt METAR EHGG 041855Z AUTO 20010KT 170V230 9999 OVC039 15/10 Q1016 NOSIG
20:25
V
15 °C 10 km+ 4.100 ft 200° 200° 9 kt METAR EHGG 041825Z AUTO 20009KT 170V230 9999 OVC041 15/10 Q1017 NOSIG
19:55
V
15 °C 10 km+ 4.200 ft 190° 190° 8 kt METAR EHGG 041755Z AUTO 19008KT 9999 OVC042 15/10 Q1016 NOSIG
19:25
V
15 °C 10 km+ 4.100 ft 190° 190° 7 kt METAR EHGG 041725Z AUTO 19007KT 160V220 9999 OVC041 15/10 Q1016 NOSIG
18:55
V
15 °C 10 km+ 4.200 ft 190° 190° 7 kt METAR EHGG 041655Z AUTO 19007KT 9999 BKN042 15/10 Q1017 NOSIG
18:25
V
16 °C 10 km+ 4.100 ft 190° 190° 7 kt METAR EHGG 041625Z AUTO 19007KT 9999 BKN041 16/10 Q1017 NOSIG
17:55
V
16 °C 10 km+ - 180° 180° 7 kt METAR EHGG 041555Z AUTO 18007KT 150V210 9999 NSC 16/10 Q1017 NOSIG
17:25
V
16 °C 10 km+ - 210° 210° 9 kt METAR EHGG 041525Z AUTO 21009KT 9999 NSC 16/09 Q1017 NOSIG
16:55
V
17 °C 10 km+ - 210° 210° 13 kt METAR EHGG 041455Z AUTO 21013KT 9999 NSC 17/09 Q1017 NOSIG
16:25
V
17 °C 10 km+ - 200° 200° 11 kt METAR EHGG 041425Z AUTO 20011KT 170V230 9999 NSC 17/10 Q1017 NOSIG
15:55
V
17 °C 10 km+ - 200° 200° 12 kt METAR EHGG 041355Z AUTO 20012KT 140V230 9999 NSC 17/11 Q1017 NOSIG
15:25
V
17 °C 10 km+ - 190° 190° 13 kt METAR EHGG 041325Z AUTO 19013KT 160V240 9999 FEW026 17/11 Q1017 NOSIG
14:55
V
17 °C 10 km+ - 200° 200° 12 kt METAR EHGG 041255Z AUTO 20012KT 170V230 9999 NSC 17/11 Q1018 NOSIG
14:25
V
17 °C 10 km+ - 200° 200° 13 kt METAR EHGG 041225Z AUTO 20013KT 170V230 9999 FEW026 17/11 Q1018 NOSIG
13:55
M
17 °C 10 km+ 2.300 ft 200° 200° 13 kt METAR EHGG 041155Z AUTO 20013KT 160V240 9999 BKN023 17/11 Q1018 NOSIG
13:25
V
17 °C 10 km+ - 210° 210° 14 kt METAR EHGG 041125Z AUTO 21014KT 180V240 9999 FEW022 17/11 Q1019 NOSIG
12:55
V
16 °C 10 km+ - 200° 200° 12 kt METAR EHGG 041055Z AUTO 20012KT 160V240 9999 FEW024 16/11 Q1019 NOSIG
12:25
V
16 °C 10 km+ - 220° 220° 13 kt METAR EHGG 041025Z AUTO 22013KT 170V240 9999 NCD 16/11 Q1019 NOSIG
11:55
V
15 °C 10 km+ - 200° 200° 12 kt METAR EHGG 040955Z AUTO 20012KT 170V230 9999 NSC 15/11 Q1019 NOSIG
11:25
V
15 °C 10 km+ - 200° 200° 10 kt METAR EHGG 040925Z AUTO 20010KT 160V250 9999 NSC 15/11 Q1019 NOSIG
10:55
V
14 °C 10 km+ - 200° 200° 9 kt METAR EHGG 040855Z AUTO 20009KT 170V230 9999 NSC 14/11 Q1019 NOSIG
10:25
V
13 °C 10 km+ - 190° 190° 8 kt METAR EHGG 040825Z AUTO 19008KT 160V220 9999 NSC 13/10 Q1019 NOSIG
09:55
V
13 °C 10 km+ - 190° 190° 7 kt METAR EHGG 040755Z AUTO 19007KT 150V210 9999 NSC 13/11 Q1019 NOSIG
09:25
V
12 °C 10 km+ - 170° 170° 6 kt METAR EHGG 040725Z AUTO 17006KT 140V200 9999 NSC 12/10 Q1019 NOSIG
08:55
V
11 °C 10 km+ - 180° 180° 7 kt METAR EHGG 040655Z AUTO 18007KT 150V210 9999 NSC 11/10 Q1019 NOSIG
08:25
V
10 °C 10 km+ - 170° 170° 5 kt METAR EHGG 040625Z AUTO 17005KT 140V200 9999 NCD 10/09 Q1020 NOSIG
07:55
V
10 °C 10 km+ - 190° 190° 6 kt METAR EHGG 040555Z AUTO 19006KT 9999 NSC 10/09 Q1020 NOSIG
07:25
V
10 °C 10 km+ - 190° 190° 5 kt METAR EHGG 040525Z AUTO 19005KT 9999 NSC 10/09 Q1020 NOSIG
06:55
V
10 °C 10 km+ - 180° 180° 5 kt METAR EHGG 040455Z AUTO 18005KT 9999 NSC 10/09 Q1020 NOSIG
06:25
V
10 °C 10 km+ - 190° 190° 5 kt METAR EHGG 040425Z AUTO 19005KT 9999 NSC 10/09 Q1020
05:55
V
10 °C 10 km+ - 190° 190° 3 kt METAR EHGG 040355Z AUTO 19003KT 160V220 9999 NSC 10/09 Q1020
05:25
V
11 °C 10 km+ - 180° 180° 6 kt METAR EHGG 040325Z AUTO 18006KT 150V210 9999 NSC 11/10 Q1020
04:55
V
10 °C 10 km+ - 200° 200° 3 kt METAR EHGG 040255Z AUTO 20003KT 9999 NSC 10/09 Q1021
04:25
V
11 °C 10 km+ - 200° 200° 5 kt METAR EHGG 040225Z AUTO 20005KT 9999 NSC 11/10 Q1021
03:55
V
11 °C 10 km+ - 200° 200° 5 kt METAR EHGG 040155Z AUTO 20005KT 170V230 9999 SCT031 11/10 Q1021
03:25
V
11 °C 10 km+ - 190° 190° 3 kt METAR EHGG 040125Z AUTO 19003KT 9999 NSC 11/10 Q1022
02:55
V
11 °C 10 km+ - 180° 180° 3 kt METAR EHGG 040055Z AUTO 18003KT 140V200 9999 NSC 11/10 Q1022
02:25
V
11 °C 10 km+ - 180° 180° 3 kt METAR EHGG 040025Z AUTO 18003KT 150V210 9999 NSC 11/11 Q1022
01:55
V
11 °C 10 km+ - 190° 190° 3 kt METAR EHGG 032355Z AUTO 19003KT 9999 NSC 11/11 Q1022
01:25
V
11 °C 10 km+ - 190° 190° 3 kt METAR EHGG 032325Z AUTO 19003KT 9999 NSC 11/11 Q1023
00:55
V
11 °C 10 km+ - 200° 200° 3 kt METAR EHGG 032255Z AUTO 20003KT 170V230 9999 NSC 11/10 Q1023
00:25
V
11 °C 10 km+ - 190° 190° 5 kt METAR EHGG 032225Z AUTO 19005KT 9999 NSC 11/10 Q1023

3. Oktober 2022

Uhrzeit Code Wetter Temp. Sichtweite Wolkendecke Wind METAR/SPECI
23:55
V
10 °C 10 km+ - 210° 210° 3 kt METAR EHGG 032155Z AUTO 21003KT 9999 NSC 10/09 Q1023
23:25
V
10 °C 10 km+ - 210° 210° 4 kt METAR EHGG 032125Z AUTO 21004KT 9999 NSC 10/10 Q1024
22:55
V
9 °C 10 km+ - 200° 200° 2 kt METAR EHGG 032055Z AUTO 20002KT 9999 NSC 09/09 Q1024 TEMPO MIFG
22:25
V
9 °C 8 km - 170° 170° 2 kt METAR EHGG 032025Z AUTO 17002KT 8000 NSC 09/09 Q1024 TEMPO MIFG
21:55
M
9 °C 7 km - Var Var 1 kt METAR EHGG 031955Z AUTO VRB01KT 7000 NSC 09/09 Q1024 TEMPO 9999 MIFG
21:25
L
9 °C 600 m - 170° 170° 2 kt METAR EHGG 031925Z AUTO 17002KT 0600 R23/1500D FG NSC 09/09 Q1024 TEMPO MIFG
20:55
V
9 °C 10 km+ - Var Var 2 kt METAR EHGG 031855Z AUTO VRB02KT 9999 NSC 09/09 Q1024 NOSIG
20:25
V
10 °C 10 km+ - 220° 220° 1 kt METAR EHGG 031825Z AUTO 22001KT 9999 NSC 10/09 Q1024 NOSIG
19:55
V
11 °C 10 km+ - 210° 210° 2 kt METAR EHGG 031755Z AUTO 21002KT 9999 NSC 11/10 Q1024 NOSIG
19:25
V
12 °C 10 km+ - 240° 240° 3 kt METAR EHGG 031725Z AUTO 24003KT 9999 NSC 12/10 Q1024 NOSIG
18:55
V
14 °C 10 km+ - 250° 250° 4 kt METAR EHGG 031655Z AUTO 25004KT 9999 NSC 14/11 Q1024 NOSIG
18:25
V
15 °C 10 km+ - 260° 260° 4 kt METAR EHGG 031625Z AUTO 26004KT 230V290 9999 NSC 15/11 Q1025 NOSIG
17:55
V
16 °C 10 km+ - 260° 260° 5 kt METAR EHGG 031555Z AUTO 26005KT 230V300 9999 NSC 16/11 Q1025 NOSIG
17:25
V
17 °C 10 km+ - 280° 280° 3 kt METAR EHGG 031525Z AUTO 28003KT 240V320 9999 NSC 17/11 Q1025 NOSIG
16:55
V
17 °C 10 km+ - 280° 280° 4 kt METAR EHGG 031455Z AUTO 28004KT 240V320 9999 SCT026 SCT029 17/11 Q1025 NOSIG
Ältere Daten

Wir und Dritte verfolgen dein Internetverhalten auf unserer Website mit Cookies. Wenn du fortfährst, gehen wir davon aus, dass du mit unserer Cookie-Richtlinie einverstanden bist. Mehr erfahren